EJU303R LIMC-LIRN
Flight info
| Callsign | EJU303R |
|---|---|
| Flight time | 1h 14m |
| Altitude | 37000 |
| Route | ROBAS DCT EVKIV DCT EKDIR DCT LOMED DCT EVULI DCT ERIKA |
| Aircraft | A319/M-SDE2E3FGIJ1RWXYZ/LB1 |
Departure
| Time | 2026-02-19 12:34 |
|---|---|
| Airport | Milan Malpensa International Airport (LIMC) |
Arrival
| Time | 2026-02-19 13:48 |
|---|---|
| Airport | Naples International Airport (LIRN) |
| Time | Latitude | Longitude | Altitude | Speed | Heading |
|---|---|---|---|---|---|
| 2026-02-19 12:03 | 45.64562 | 8.72213 | 752 ft | 0 kts | 79° |
| 2026-02-19 12:22 | 45.64560 | 8.72196 | 752 ft | 3 kts | 83° |
| 2026-02-19 12:22 | 45.64559 | 8.72168 | 748 ft | 3 kts | 94° |
| 2026-02-19 12:23 | 45.64562 | 8.72140 | 751 ft | 3 kts | 109° |
| 2026-02-19 12:23 | 45.64570 | 8.72114 | 747 ft | 3 kts | 130° |
| 2026-02-19 12:23 | 45.64584 | 8.72097 | 747 ft | 2 kts | 162° |
| 2026-02-19 12:23 | 45.64589 | 8.72095 | 751 ft | 0 kts | 169° |
| 2026-02-19 12:26 | 45.64574 | 8.72099 | 750 ft | 4 kts | 169° |
| 2026-02-19 12:26 | 45.64534 | 8.72110 | 749 ft | 8 kts | 169° |
| 2026-02-19 12:27 | 45.64471 | 8.72127 | 751 ft | 11 kts | 169° |
| 2026-02-19 12:27 | 45.64412 | 8.72209 | 749 ft | 13 kts | 141° |
| 2026-02-19 12:27 | 45.64314 | 8.72247 | 750 ft | 16 kts | 170° |
| 2026-02-19 12:27 | 45.64191 | 8.72279 | 749 ft | 20 kts | 169° |
| 2026-02-19 12:28 | 45.64045 | 8.72318 | 749 ft | 23 kts | 168° |
| 2026-02-19 12:28 | 45.63953 | 8.72540 | 750 ft | 15 kts | 84° |
| 2026-02-19 12:28 | 45.63881 | 8.72590 | 750 ft | 14 kts | 173° |
| 2026-02-19 12:29 | 45.63774 | 8.72614 | 752 ft | 17 kts | 168° |
| 2026-02-19 12:29 | 45.63643 | 8.72653 | 749 ft | 21 kts | 169° |
| 2026-02-19 12:29 | 45.63488 | 8.72694 | 752 ft | 24 kts | 169° |
| 2026-02-19 12:29 | 45.63309 | 8.72741 | 752 ft | 28 kts | 169° |
| 2026-02-19 12:30 | 45.63107 | 8.72796 | 753 ft | 31 kts | 169° |
| 2026-02-19 12:30 | 45.62899 | 8.72855 | 749 ft | 30 kts | 169° |
| 2026-02-19 12:30 | 45.62695 | 8.72913 | 751 ft | 30 kts | 169° |
| 2026-02-19 12:30 | 45.62492 | 8.72968 | 753 ft | 30 kts | 169° |
| 2026-02-19 12:31 | 45.62291 | 8.73024 | 753 ft | 29 kts | 169° |
| 2026-02-19 12:31 | 45.62091 | 8.73078 | 753 ft | 29 kts | 169° |
| 2026-02-19 12:31 | 45.61896 | 8.73132 | 750 ft | 28 kts | 169° |
| 2026-02-19 12:31 | 45.61705 | 8.73185 | 749 ft | 28 kts | 169° |
| 2026-02-19 12:32 | 45.61516 | 8.73237 | 750 ft | 28 kts | 169° |
| 2026-02-19 12:32 | 45.61237 | 8.73155 | 751 ft | 22 kts | 214° |
| 2026-02-19 12:32 | 45.61127 | 8.73016 | 751 ft | 22 kts | 248° |
| 2026-02-19 12:33 | 45.61117 | 8.72826 | 745 ft | 13 kts | 311° |
| 2026-02-19 12:33 | 45.61175 | 8.72797 | 748 ft | 0 kts | 350° |
| 2026-02-19 12:33 | 45.61177 | 8.72797 | 748 ft | 6 kts | 350° |
| 2026-02-19 12:33 | 45.61510 | 8.72707 | 748 ft | 88 kts | 349° |
| 2026-02-19 12:34 | 45.62347 | 8.72475 | 745 ft | 154 kts | 349° |
| 2026-02-19 12:34 | 45.63457 | 8.72179 | 1253 ft | 161 kts | 347° |
| 2026-02-19 12:34 | 45.64423 | 8.71397 | 1827 ft | 163 kts | 305° |
| 2026-02-19 12:34 | 45.64835 | 8.69838 | 2191 ft | 182 kts | 267° |
| 2026-02-19 12:35 | 45.64466 | 8.68030 | 2670 ft | 196 kts | 251° |
| 2026-02-19 12:35 | 45.64312 | 8.66017 | 3173 ft | 213 kts | 277° |
| 2026-02-19 12:35 | 45.64682 | 8.63996 | 4117 ft | 211 kts | 290° |
| 2026-02-19 12:35 | 45.65160 | 8.62001 | 4967 ft | 212 kts | 289° |
| 2026-02-19 12:36 | 45.65590 | 8.59978 | 5833 ft | 213 kts | 285° |
| 2026-02-19 12:36 | 45.66298 | 8.55756 | 7396 ft | 220 kts | 285° |
| 2026-02-19 12:36 | 45.66656 | 8.53622 | 8153 ft | 223 kts | 284° |
| 2026-02-19 12:37 | 45.67013 | 8.51418 | 8540 ft | 233 kts | 283° |
| 2026-02-19 12:37 | 45.67052 | 8.49077 | 8633 ft | 240 kts | 260° |
| 2026-02-19 12:37 | 45.66449 | 8.46856 | 8660 ft | 243 kts | 237° |
| 2026-02-19 12:37 | 45.65354 | 8.44983 | 9342 ft | 246 kts | 230° |
| 2026-02-19 12:38 | 45.64159 | 8.43219 | 10187 ft | 249 kts | 218° |
| 2026-02-19 12:38 | 45.62600 | 8.42115 | 10990 ft | 254 kts | 195° |
| 2026-02-19 12:38 | 45.60804 | 8.41947 | 11462 ft | 277 kts | 172° |
| 2026-02-19 12:38 | 45.58888 | 8.42850 | 11786 ft | 303 kts | 159° |
| 2026-02-19 12:39 | 45.56932 | 8.44267 | 12068 ft | 329 kts | 145° |
| 2026-02-19 12:39 | 45.55250 | 8.46613 | 12460 ft | 348 kts | 126° |
| 2026-02-19 12:39 | 45.54111 | 8.49689 | 13155 ft | 354 kts | 111° |
| 2026-02-19 12:39 | 45.53213 | 8.52963 | 13956 ft | 356 kts | 111° |
| 2026-02-19 12:40 | 45.52307 | 8.56251 | 14742 ft | 358 kts | 111° |
| 2026-02-19 12:40 | 45.50466 | 8.62883 | 16257 ft | 362 kts | 112° |
| 2026-02-19 12:40 | 45.49539 | 8.66214 | 16545 ft | 361 kts | 112° |
| 2026-02-19 12:41 | 45.48612 | 8.69539 | 16633 ft | 360 kts | 112° |
| 2026-02-19 12:41 | 45.47685 | 8.72870 | 17058 ft | 363 kts | 112° |
| 2026-02-19 12:41 | 45.46751 | 8.76215 | 17783 ft | 365 kts | 113° |
| 2026-02-19 12:41 | 45.45811 | 8.79584 | 18468 ft | 367 kts | 113° |
| 2026-02-19 12:42 | 45.44867 | 8.82977 | 19135 ft | 370 kts | 114° |
| 2026-02-19 12:42 | 45.43915 | 8.86389 | 19780 ft | 372 kts | 114° |
| 2026-02-19 12:42 | 45.42953 | 8.89826 | 20405 ft | 375 kts | 114° |
| 2026-02-19 12:42 | 45.41982 | 8.93283 | 21029 ft | 377 kts | 115° |
| 2026-02-19 12:43 | 45.41004 | 8.96759 | 21621 ft | 379 kts | 115° |
| 2026-02-19 12:43 | 45.40020 | 9.00250 | 22193 ft | 382 kts | 115° |
| 2026-02-19 12:44 | 45.37040 | 9.10787 | 23855 ft | 388 kts | 116° |
| 2026-02-19 12:44 | 45.35020 | 9.17950 | 25643 ft | 393 kts | 113° |
| 2026-02-19 12:44 | 45.33983 | 9.21613 | 25768 ft | 406 kts | 112° |
| 2026-02-19 12:45 | 45.32912 | 9.25383 | 25975 ft | 416 kts | 112° |
| 2026-02-19 12:45 | 45.31820 | 9.29218 | 26376 ft | 420 kts | 112° |
| 2026-02-19 12:45 | 45.30718 | 9.33080 | 26836 ft | 423 kts | 113° |
| 2026-02-19 12:45 | 45.29608 | 9.36967 | 27304 ft | 426 kts | 114° |
| 2026-02-19 12:46 | 45.28491 | 9.40876 | 27805 ft | 428 kts | 114° |
| 2026-02-19 12:46 | 45.27368 | 9.44798 | 28271 ft | 430 kts | 114° |
| 2026-02-19 12:46 | 45.26237 | 9.48747 | 28721 ft | 433 kts | 114° |
| 2026-02-19 12:46 | 45.25100 | 9.52715 | 29138 ft | 435 kts | 114° |
| 2026-02-19 12:47 | 45.23968 | 9.56650 | 29552 ft | 438 kts | 114° |
| 2026-02-19 12:47 | 45.22809 | 9.60676 | 29038 ft | 430 kts | 117° |
| 2026-02-19 12:47 | 45.21695 | 9.64539 | 30731 ft | 428 kts | 117° |
| 2026-02-19 12:47 | 45.20372 | 9.68342 | 30875 ft | 433 kts | 125° |
| 2026-02-19 12:48 | 45.18598 | 9.71801 | 30998 ft | 436 kts | 135° |
| 2026-02-19 12:48 | 45.13910 | 9.77228 | 31364 ft | 437 kts | 153° |
| 2026-02-19 12:48 | 45.11293 | 9.79428 | 31729 ft | 438 kts | 153° |
| 2026-02-19 12:49 | 45.08678 | 9.81636 | 32135 ft | 438 kts | 153° |
| 2026-02-19 12:49 | 45.06065 | 9.83851 | 32542 ft | 438 kts | 153° |
| 2026-02-19 12:49 | 45.03454 | 9.86069 | 32938 ft | 437 kts | 153° |
| 2026-02-19 12:49 | 45.00846 | 9.88281 | 33351 ft | 437 kts | 153° |
| 2026-02-19 12:50 | 44.98239 | 9.90487 | 33768 ft | 437 kts | 154° |
| 2026-02-19 12:50 | 44.95633 | 9.92683 | 34086 ft | 437 kts | 154° |
| 2026-02-19 12:50 | 44.93015 | 9.94881 | 34351 ft | 438 kts | 154° |
| 2026-02-19 12:50 | 44.90395 | 9.97076 | 34620 ft | 438 kts | 155° |
| 2026-02-19 12:51 | 44.87776 | 9.99270 | 34914 ft | 438 kts | 155° |
| 2026-02-19 12:51 | 44.85155 | 10.01467 | 35201 ft | 438 kts | 155° |
| 2026-02-19 12:51 | 44.82537 | 10.03666 | 35462 ft | 439 kts | 155° |
| 2026-02-19 12:51 | 44.79912 | 10.05868 | 35718 ft | 439 kts | 155° |
| 2026-02-19 12:52 | 44.77278 | 10.08070 | 35966 ft | 441 kts | 155° |
| 2026-02-19 12:52 | 44.71992 | 10.12472 | 36451 ft | 442 kts | 155° |
| 2026-02-19 12:52 | 44.69341 | 10.14675 | 36599 ft | 443 kts | 155° |
| 2026-02-19 12:53 | 44.64098 | 10.19038 | 36614 ft | 439 kts | 155° |
| 2026-02-19 12:53 | 44.58843 | 10.23404 | 36589 ft | 438 kts | 155° |
| 2026-02-19 12:54 | 44.53625 | 10.27732 | 36590 ft | 435 kts | 155° |
| 2026-02-19 12:54 | 44.48539 | 10.32363 | 36559 ft | 442 kts | 145° |
| 2026-02-19 12:55 | 44.44100 | 10.38424 | 36559 ft | 447 kts | 141° |
| 2026-02-19 12:55 | 44.39691 | 10.44551 | 36552 ft | 446 kts | 141° |
| 2026-02-19 12:56 | 44.33069 | 10.53688 | 36543 ft | 446 kts | 142° |
| 2026-02-19 12:57 | 44.28647 | 10.59763 | 36524 ft | 445 kts | 142° |
| 2026-02-19 12:57 | 44.24225 | 10.65830 | 36544 ft | 446 kts | 142° |
| 2026-02-19 12:58 | 44.19865 | 10.71969 | 36542 ft | 449 kts | 136° |
| 2026-02-19 12:58 | 44.15850 | 10.78647 | 36560 ft | 450 kts | 136° |
| 2026-02-19 12:59 | 44.11828 | 10.85319 | 36566 ft | 450 kts | 136° |
| 2026-02-19 12:59 | 44.07793 | 10.91980 | 36578 ft | 450 kts | 137° |
| 2026-02-19 13:00 | 44.03750 | 10.98629 | 36600 ft | 451 kts | 137° |
| 2026-02-19 13:00 | 43.97123 | 11.07686 | 36647 ft | 445 kts | 143° |
| 2026-02-19 13:01 | 43.92626 | 11.13583 | 36658 ft | 445 kts | 143° |
| 2026-02-19 13:01 | 43.88122 | 11.19484 | 36666 ft | 445 kts | 143° |
| 2026-02-19 13:02 | 43.83614 | 11.25376 | 36645 ft | 446 kts | 143° |
| 2026-02-19 13:02 | 43.79096 | 11.31260 | 36638 ft | 446 kts | 144° |
| 2026-02-19 13:03 | 43.74559 | 11.37156 | 36651 ft | 448 kts | 144° |
| 2026-02-19 13:03 | 43.70014 | 11.43052 | 36663 ft | 448 kts | 144° |
| 2026-02-19 13:04 | 43.63177 | 11.51882 | 36662 ft | 449 kts | 144° |
| 2026-02-19 13:05 | 43.58610 | 11.57776 | 36670 ft | 450 kts | 144° |
| 2026-02-19 13:05 | 43.54034 | 11.63673 | 36683 ft | 451 kts | 144° |
| 2026-02-19 13:06 | 43.49452 | 11.69566 | 36729 ft | 451 kts | 144° |
| 2026-02-19 13:06 | 43.44887 | 11.75413 | 36807 ft | 451 kts | 144° |
| 2026-02-19 13:07 | 43.40288 | 11.81293 | 36866 ft | 452 kts | 145° |
| 2026-02-19 13:07 | 43.35680 | 11.87183 | 36933 ft | 452 kts | 145° |
| 2026-02-19 13:08 | 43.31071 | 11.93053 | 36968 ft | 452 kts | 145° |
| 2026-02-19 13:08 | 43.24159 | 12.01837 | 36963 ft | 452 kts | 145° |
| 2026-02-19 13:09 | 43.19542 | 12.07685 | 36886 ft | 451 kts | 146° |
| 2026-02-19 13:09 | 43.14934 | 12.13511 | 36833 ft | 450 kts | 146° |
| 2026-02-19 13:10 | 43.10330 | 12.19314 | 36712 ft | 450 kts | 146° |
| 2026-02-19 13:10 | 43.05721 | 12.25095 | 36713 ft | 449 kts | 146° |
| 2026-02-19 13:11 | 43.01118 | 12.30867 | 36714 ft | 449 kts | 146° |
| 2026-02-19 13:11 | 42.97264 | 12.35702 | 36710 ft | 448 kts | 146° |
| 2026-02-19 13:12 | 42.90388 | 12.44317 | 36691 ft | 447 kts | 147° |
| 2026-02-19 13:13 | 42.85803 | 12.50042 | 36699 ft | 445 kts | 147° |
| 2026-02-19 13:13 | 42.81226 | 12.55726 | 36705 ft | 445 kts | 147° |
| 2026-02-19 13:14 | 42.76650 | 12.61404 | 36701 ft | 445 kts | 147° |
| 2026-02-19 13:14 | 42.72069 | 12.67090 | 36674 ft | 446 kts | 148° |
| 2026-02-19 13:15 | 42.67482 | 12.72761 | 36698 ft | 445 kts | 148° |
| 2026-02-19 13:15 | 42.62934 | 12.78373 | 36686 ft | 445 kts | 148° |
| 2026-02-19 13:16 | 42.58353 | 12.84024 | 36668 ft | 445 kts | 148° |
| 2026-02-19 13:16 | 42.51467 | 12.92480 | 36655 ft | 446 kts | 148° |
| 2026-02-19 13:17 | 42.46856 | 12.98115 | 36655 ft | 447 kts | 148° |
| 2026-02-19 13:17 | 42.42209 | 13.03790 | 36668 ft | 446 kts | 148° |
| 2026-02-19 13:18 | 42.37644 | 13.09374 | 36673 ft | 444 kts | 148° |
| 2026-02-19 13:18 | 42.33062 | 13.14961 | 36681 ft | 444 kts | 148° |
| 2026-02-19 13:19 | 42.28436 | 13.20569 | 36716 ft | 448 kts | 148° |
| 2026-02-19 13:19 | 42.23789 | 13.26198 | 36483 ft | 451 kts | 148° |
| 2026-02-19 13:20 | 42.21415 | 13.29055 | 35238 ft | 465 kts | 149° |
| 2026-02-19 13:20 | 42.16553 | 13.34904 | 33644 ft | 469 kts | 149° |
| 2026-02-19 13:20 | 42.14192 | 13.37841 | 33062 ft | 456 kts | 149° |
| 2026-02-19 13:21 | 42.11917 | 13.40757 | 32792 ft | 446 kts | 149° |
| 2026-02-19 13:21 | 42.09710 | 13.43623 | 32426 ft | 436 kts | 149° |
| 2026-02-19 13:21 | 42.07537 | 13.46435 | 31920 ft | 431 kts | 149° |
| 2026-02-19 13:21 | 42.05376 | 13.49199 | 31451 ft | 426 kts | 150° |
| 2026-02-19 13:22 | 42.03232 | 13.51918 | 30964 ft | 420 kts | 150° |
| 2026-02-19 13:22 | 42.01112 | 13.54594 | 30508 ft | 416 kts | 150° |
| 2026-02-19 13:22 | 41.99010 | 13.57230 | 30059 ft | 411 kts | 150° |
| 2026-02-19 13:22 | 41.96926 | 13.59837 | 29587 ft | 408 kts | 150° |
| 2026-02-19 13:23 | 41.94860 | 13.62425 | 29158 ft | 403 kts | 150° |
| 2026-02-19 13:23 | 41.92826 | 13.64981 | 28726 ft | 398 kts | 150° |
| 2026-02-19 13:23 | 41.90818 | 13.67505 | 28314 ft | 393 kts | 150° |
| 2026-02-19 13:23 | 41.88831 | 13.70001 | 27898 ft | 389 kts | 150° |
| 2026-02-19 13:24 | 41.86861 | 13.72475 | 27520 ft | 387 kts | 150° |
| 2026-02-19 13:24 | 41.82960 | 13.77359 | 26692 ft | 380 kts | 150° |
| 2026-02-19 13:25 | 41.79145 | 13.82134 | 25860 ft | 372 kts | 150° |
| 2026-02-19 13:25 | 41.77259 | 13.84483 | 25435 ft | 369 kts | 150° |
| 2026-02-19 13:25 | 41.75388 | 13.86816 | 24971 ft | 365 kts | 149° |
| 2026-02-19 13:25 | 41.73548 | 13.89115 | 24591 ft | 360 kts | 149° |
| 2026-02-19 13:26 | 41.71714 | 13.91396 | 24150 ft | 359 kts | 149° |
| 2026-02-19 13:26 | 41.69882 | 13.93667 | 23705 ft | 359 kts | 148° |
| 2026-02-19 13:26 | 41.68056 | 13.95930 | 23255 ft | 356 kts | 148° |
| 2026-02-19 13:26 | 41.66254 | 13.98174 | 22796 ft | 351 kts | 148° |
| 2026-02-19 13:27 | 41.64489 | 14.00384 | 22365 ft | 342 kts | 148° |
| 2026-02-19 13:27 | 41.62776 | 14.02531 | 21965 ft | 335 kts | 148° |
| 2026-02-19 13:27 | 41.61109 | 14.04701 | 21552 ft | 335 kts | 146° |
| 2026-02-19 13:27 | 41.59506 | 14.06957 | 21150 ft | 335 kts | 144° |
| 2026-02-19 13:28 | 41.57942 | 14.09253 | 20750 ft | 334 kts | 143° |
| 2026-02-19 13:28 | 41.54974 | 14.14072 | 19930 ft | 338 kts | 137° |
| 2026-02-19 13:28 | 41.53573 | 14.16603 | 19519 ft | 339 kts | 136° |
| 2026-02-19 13:29 | 41.52184 | 14.19158 | 19093 ft | 341 kts | 136° |
| 2026-02-19 13:29 | 41.50793 | 14.21730 | 18642 ft | 342 kts | 136° |
| 2026-02-19 13:29 | 41.49404 | 14.24293 | 18275 ft | 341 kts | 135° |
| 2026-02-19 13:29 | 41.48009 | 14.26851 | 17845 ft | 341 kts | 135° |
| 2026-02-19 13:30 | 41.46611 | 14.29398 | 17450 ft | 340 kts | 136° |
| 2026-02-19 13:30 | 41.45219 | 14.31928 | 17048 ft | 338 kts | 136° |
| 2026-02-19 13:30 | 41.43829 | 14.34445 | 16647 ft | 338 kts | 136° |
| 2026-02-19 13:30 | 41.42450 | 14.36930 | 16261 ft | 338 kts | 136° |
| 2026-02-19 13:31 | 41.41056 | 14.39446 | 15869 ft | 337 kts | 136° |
| 2026-02-19 13:31 | 41.39666 | 14.41955 | 15480 ft | 336 kts | 136° |
| 2026-02-19 13:31 | 41.38277 | 14.44465 | 15079 ft | 336 kts | 136° |
| 2026-02-19 13:31 | 41.36889 | 14.46972 | 14710 ft | 338 kts | 136° |
| 2026-02-19 13:32 | 41.35489 | 14.49493 | 14317 ft | 340 kts | 136° |
| 2026-02-19 13:32 | 41.32677 | 14.54568 | 13524 ft | 341 kts | 136° |
| 2026-02-19 13:32 | 41.31267 | 14.57109 | 13097 ft | 341 kts | 136° |
| 2026-02-19 13:33 | 41.29861 | 14.59625 | 12705 ft | 338 kts | 136° |
| 2026-02-19 13:33 | 41.28464 | 14.62126 | 12380 ft | 336 kts | 136° |
| 2026-02-19 13:33 | 41.27079 | 14.64604 | 11929 ft | 332 kts | 136° |
| 2026-02-19 13:33 | 41.25709 | 14.67056 | 11597 ft | 327 kts | 136° |
| 2026-02-19 13:34 | 41.24384 | 14.69439 | 11481 ft | 315 kts | 135° |
| 2026-02-19 13:34 | 41.23103 | 14.71744 | 11376 ft | 305 kts | 135° |
| 2026-02-19 13:34 | 41.21822 | 14.73922 | 11236 ft | 290 kts | 144° |
| 2026-02-19 13:34 | 41.20289 | 14.75504 | 10918 ft | 272 kts | 159° |
| 2026-02-19 13:35 | 41.18696 | 14.76800 | 10531 ft | 265 kts | 158° |
| 2026-02-19 13:35 | 41.17144 | 14.78068 | 10169 ft | 258 kts | 158° |
| 2026-02-19 13:35 | 41.15638 | 14.79298 | 9816 ft | 250 kts | 159° |
| 2026-02-19 13:35 | 41.14101 | 14.80027 | 9476 ft | 222 kts | 187° |
| 2026-02-19 13:36 | 41.12708 | 14.79613 | 9178 ft | 196 kts | 213° |
| 2026-02-19 13:36 | 41.11113 | 14.77065 | 8693 ft | 170 kts | 237° |
| 2026-02-19 13:36 | 41.10515 | 14.75781 | 8470 ft | 159 kts | 235° |
| 2026-02-19 13:37 | 41.09922 | 14.74527 | 8241 ft | 161 kts | 236° |
| 2026-02-19 13:37 | 41.09316 | 14.73272 | 8069 ft | 160 kts | 236° |
| 2026-02-19 13:37 | 41.08714 | 14.72023 | 7929 ft | 161 kts | 236° |
| 2026-02-19 13:37 | 41.08118 | 14.70761 | 7746 ft | 161 kts | 236° |
| 2026-02-19 13:38 | 41.07532 | 14.69512 | 7539 ft | 157 kts | 236° |
| 2026-02-19 13:38 | 41.06983 | 14.68330 | 7324 ft | 143 kts | 236° |
| 2026-02-19 13:38 | 41.06473 | 14.67236 | 7231 ft | 139 kts | 234° |
| 2026-02-19 13:38 | 41.05969 | 14.66148 | 7090 ft | 136 kts | 235° |
| 2026-02-19 13:39 | 41.05475 | 14.65086 | 6948 ft | 135 kts | 235° |
| 2026-02-19 13:39 | 41.04985 | 14.64035 | 6768 ft | 134 kts | 235° |
| 2026-02-19 13:39 | 41.04488 | 14.62969 | 6556 ft | 136 kts | 233° |
| 2026-02-19 13:39 | 41.03992 | 14.61914 | 6380 ft | 136 kts | 235° |
| 2026-02-19 13:40 | 41.03495 | 14.60847 | 6183 ft | 136 kts | 234° |
| 2026-02-19 13:40 | 41.02513 | 14.58746 | 5761 ft | 135 kts | 235° |
| 2026-02-19 13:40 | 41.02026 | 14.57702 | 5572 ft | 134 kts | 234° |
| 2026-02-19 13:41 | 41.01546 | 14.56672 | 5390 ft | 134 kts | 234° |
| 2026-02-19 13:41 | 41.01061 | 14.55636 | 5198 ft | 132 kts | 233° |
| 2026-02-19 13:41 | 41.00577 | 14.54599 | 4985 ft | 131 kts | 234° |
| 2026-02-19 13:41 | 41.00099 | 14.53574 | 4799 ft | 131 kts | 234° |
| 2026-02-19 13:42 | 40.99622 | 14.52556 | 4597 ft | 129 kts | 234° |
| 2026-02-19 13:42 | 40.99146 | 14.51543 | 4387 ft | 128 kts | 234° |
| 2026-02-19 13:42 | 40.98670 | 14.50523 | 4217 ft | 133 kts | 233° |
| 2026-02-19 13:42 | 40.98192 | 14.49499 | 4001 ft | 129 kts | 232° |
| 2026-02-19 13:43 | 40.97725 | 14.48502 | 3819 ft | 126 kts | 231° |
| 2026-02-19 13:43 | 40.97278 | 14.47543 | 3618 ft | 115 kts | 231° |
| 2026-02-19 13:43 | 40.96861 | 14.46661 | 3454 ft | 120 kts | 230° |
| 2026-02-19 13:43 | 40.96411 | 14.45698 | 3270 ft | 125 kts | 231° |
| 2026-02-19 13:44 | 40.95955 | 14.44725 | 3098 ft | 124 kts | 230° |
| 2026-02-19 13:44 | 40.95046 | 14.42783 | 2713 ft | 124 kts | 229° |
| 2026-02-19 13:44 | 40.94592 | 14.41815 | 2518 ft | 121 kts | 228° |
| 2026-02-19 13:45 | 40.94171 | 14.40912 | 2348 ft | 113 kts | 228° |
| 2026-02-19 13:45 | 40.93762 | 14.40044 | 2184 ft | 111 kts | 227° |
| 2026-02-19 13:45 | 40.93359 | 14.39187 | 2019 ft | 109 kts | 227° |
| 2026-02-19 13:45 | 40.92955 | 14.38331 | 1840 ft | 112 kts | 229° |
| 2026-02-19 13:46 | 40.92544 | 14.37457 | 1681 ft | 111 kts | 226° |
| 2026-02-19 13:46 | 40.92129 | 14.36595 | 1464 ft | 111 kts | 223° |
| 2026-02-19 13:46 | 40.91696 | 14.35732 | 1291 ft | 115 kts | 232° |
| 2026-02-19 13:46 | 40.91259 | 14.34825 | 1098 ft | 120 kts | 242° |
| 2026-02-19 13:47 | 40.90890 | 14.33799 | 1061 ft | 125 kts | 230° |
| 2026-02-19 13:47 | 40.90396 | 14.32854 | 800 ft | 123 kts | 225° |
| 2026-02-19 13:47 | 40.89908 | 14.31897 | 583 ft | 128 kts | 237° |
| 2026-02-19 13:47 | 40.89467 | 14.30884 | 372 ft | 128 kts | 229° |
| 2026-02-19 13:48 | 40.88991 | 14.29904 | 256 ft | 126 kts | 232° |
| 2026-02-19 13:48 | 40.88483 | 14.28831 | 278 ft | 18 kts | 240° |
| 2026-02-19 13:48 | 40.88430 | 14.28752 | 279 ft | 7 kts | 150° |
| 2026-02-19 13:49 | 40.88384 | 14.28792 | 281 ft | 9 kts | 147° |
| 2026-02-19 13:49 | 40.88328 | 14.28839 | 278 ft | 10 kts | 149° |
| 2026-02-19 13:49 | 40.88265 | 14.28887 | 279 ft | 11 kts | 150° |
| 2026-02-19 13:49 | 40.88217 | 14.28902 | 280 ft | 4 kts | 231° |
| 2026-02-19 13:50 | 40.88203 | 14.28879 | 279 ft | 2 kts | 231° |
| 2026-02-19 13:50 | 40.88190 | 14.28857 | 280 ft | 4 kts | 231° |
| 2026-02-19 13:50 | 40.88160 | 14.28806 | 281 ft | 11 kts | 231° |
| 2026-02-19 13:50 | 40.88090 | 14.28683 | 283 ft | 20 kts | 233° |
| 2026-02-19 13:51 | 40.88008 | 14.28540 | 288 ft | 18 kts | 232° |
| 2026-02-19 13:51 | 40.87934 | 14.28429 | 294 ft | 14 kts | 266° |
| 2026-02-19 13:51 | 40.87941 | 14.28369 | 292 ft | 0 kts | 279° |
| 2026-02-19 13:51 | 40.87941 | 14.28360 | 292 ft | 2 kts | 265° |
| 2026-02-19 13:52 | 40.87921 | 14.28350 | 294 ft | 4 kts | 186° |
| 2026-02-19 13:52 | 40.87888 | 14.28345 | 295 ft | 1 kts | 187° |
| 2026-02-19 13:52 | 40.87881 | 14.28344 | 298 ft | 3 kts | 187° |
| 2026-02-19 13:53 | 40.87876 | 14.28343 | 298 ft | 1 kts | 187° |